Time;durP1;ratioP1;P1;durP2;ratioP2;P2;SDS_P1;SDS_P2;PMS_P1;PMS_P2;Temp;Humidity;BMP_temperature;BMP_pressure;BME280_temperature;BME280_humidity;BME280_pressure;Samples;Min_cycle;Max_cycle;Signal;HPM_P1;HPM_P2
2021/05/03 00:00:34;;;;;;;24.77;9.48;;;;;;;21.05;51.39;99532.83;1803167;79;21593;-79
2021/05/03 00:03:01;;;;;;;50.52;15.32;;;;;;;21.07;51.41;99540.73;1803155;79;21531;-80
2021/05/03 00:05:29;;;;;;;66.92;22.02;;;;;;;21.08;51.39;99548.67;1771223;81;21154;-78
2021/05/03 00:07:57;;;;;;;58.38;16.90;;;;;;;21.09;51.36;99547.59;1820109;78;21043;-80
2021/05/03 00:10:25;;;;;;;53.52;16.82;;;;;;;21.10;51.32;99545.16;1805572;78;21125;-80
2021/05/03 00:12:52;;;;;;;;;;;;;;;21.06;51.35;99529.02;1805711;79;21180;-82
2021/05/03 00:15:21;;;;;;;39.23;12.47;;;;;;;21.06;51.25;99529.02;1803041;79;20228;-78
2021/05/03 00:17:48;;;;;;;47.05;15.90;;;;;;;21.09;51.27;99527.17;1803210;79;21496;-76
2021/05/03 00:20:16;;;;;;;80.17;27.60;;;;;;;21.12;51.29;99527.19;1803152;79;21109;-77
2021/05/03 00:22:46;;;;;;;99.47;31.07;;;;;;;21.08;51.26;99521.98;1802434;79;21595;-79
2021/05/03 00:25:15;;;;;;;113.62;33.50;;;;;;;21.01;51.42;99527.05;1802969;79;21923;-82
2021/05/03 00:27:44;;;;;;;81.72;24.30;;;;;;;21.00;51.31;99539.02;1802925;79;21153;-79
2021/05/03 00:30:15;;;;;;;87.25;28.40;;;;;;;20.99;51.35;99533.83;1803094;79;21164;-80
2021/05/03 00:32:44;;;;;;;85.62;27.52;;;;;;;20.99;51.47;99529.75;1803109;79;21137;-79
2021/05/03 00:35:12;;;;;;;77.25;24.87;;;;;;;20.97;51.48;99531.34;1803000;79;21066;-78
2021/05/03 00:37:39;;;;;;;55.78;19.67;;;;;;;20.96;51.44;99531.05;1815592;78;21094;-79
2021/05/03 00:40:06;;;;;;;;;;;;;;;20.97;51.40;99527.80;1835831;78;21103;-81
2021/05/03 00:42:34;;;;;;;27.00;11.15;;;;;;;20.99;51.24;99529.75;1783314;80;20263;-80
2021/05/03 00:45:11;;;;;;;17.85;8.33;;;;;;;21.02;51.12;99536.86;1803149;79;21110;-80
2021/05/03 00:47:39;;;;;;;18.62;7.67;;;;;;;21.05;50.92;99536.91;1803012;79;21086;-80
2021/05/03 00:50:09;;;;;;;19.55;9.90;;;;;;;21.06;50.85;99541.28;1785622;79;21127;-81
2021/05/03 00:52:38;;;;;;;15.70;9.10;;;;;;;21.07;50.91;99549.72;1801412;79;21190;-80
2021/05/03 00:55:07;;;;;;;;;;;;;;;21.09;50.80;99541.33;1804274;79;21174;-78
2021/05/03 00:57:33;;;;;;;;;;;;;;;21.06;50.80;99531.75;1795615;79;20280;-78
2021/05/03 01:00:01;;;;;;;19.82;10.23;;;;;;;21.05;50.76;99539.63;1792559;78;20274;-81
2021/05/03 01:02:28;;;;;;;17.42;7.70;;;;;;;21.05;50.80;99535.55;1792728;78;21182;-77
2021/05/03 01:04:55;;;;;;;;;;;;;;;21.02;50.81;99534.67;1795370;80;21204;-80
2021/05/03 01:07:22;;;;;;;13.93;8.35;;;;;;;21.00;50.76;99543.64;1791569;78;20547;-78
2021/05/03 01:09:50;;;;;;;17.82;8.65;;;;;;;20.96;50.82;99531.59;1819146;78;21061;-79
2021/05/03 01:12:17;;;;;;;20.20;10.20;;;;;;;20.95;50.86;99536.22;1819161;78;21106;-78
2021/05/03 01:14:45;;;;;;;21.35;10.72;;;;;;;20.95;50.88;99534.04;1794046;78;21129;-78
2021/05/03 01:17:12;;;;;;;21.33;9.30;;;;;;;20.94;50.83;99533.76;1818622;78;21181;-78
2021/05/03 01:19:41;;;;;;;16.12;7.80;;;;;;;20.92;50.84;99531.27;1817062;78;21122;-82
2021/05/03 01:22:09;;;;;;;17.07;8.75;;;;;;;20.94;50.95;99531.03;1783477;79;21074;-81
2021/05/03 01:24:36;;;;;;;21.35;9.50;;;;;;;20.97;50.88;99529.16;1810014;79;21103;-79
2021/05/03 01:27:03;;;;;;;;;;;;;;;21.01;50.91;99532.49;1813012;79;21162;-78
2021/05/03 01:29:31;;;;;;;19.87;10.70;;;;;;;21.03;50.82;99532.27;1810773;79;20467;-79
2021/05/03 01:31:58;;;;;;;21.00;8.78;;;;;;;21.04;50.79;99539.35;1810088;79;21047;-79
2021/05/03 01:34:25;;;;;;;20.92;9.08;;;;;;;21.05;50.79;99527.38;1782707;79;21162;-79
2021/05/03 01:36:52;;;;;;;15.75;8.90;;;;;;;21.06;50.79;99538.55;1779709;79;21620;-80
2021/05/03 01:39:19;;;;;;;;;;;;;;;21.07;50.78;99533.39;1780403;80;21080;-78
2021/05/03 01:41:47;;;;;;;23.47;9.95;;;;;;;21.08;50.80;99529.61;1777603;80;20277;-77
2021/05/03 01:44:16;;;;;;;21.75;10.08;;;;;;;21.10;50.79;99521.19;1777926;80;21117;-79
2021/05/03 01:46:45;;;;;;;19.77;8.85;;;;;;;21.09;50.77;99528.53;1753070;80;21670;-80
2021/05/03 01:49:13;;;;;;;18.70;9.65;;;;;;;21.12;50.71;99524.47;1777704;80;21650;-78
2021/05/03 01:51:40;;;;;;;18.40;9.63;;;;;;;21.09;50.79;99525.81;1777863;80;21136;-78
2021/05/03 01:54:08;;;;;;;18.00;10.00;;;;;;;21.09;50.91;99515.45;1777919;80;21061;-79
2021/05/03 01:56:35;;;;;;;23.02;10.50;;;;;;;21.09;50.86;99524.98;1778083;80;21137;-77
2021/05/03 01:59:05;;;;;;;23.85;11.55;;;;;;;21.08;50.86;99522.81;1777461;80;21196;-80
2021/05/03 02:01:36;;;;;;;22.50;10.43;;;;;;;21.08;50.88;99528.80;1777841;80;21144;-78
2021/05/03 02:04:04;;;;;;;22.30;10.45;;;;;;;21.08;50.89;99525.53;1778231;80;21145;-80
2021/05/03 02:06:32;;;;;;;23.77;11.80;;;;;;;21.09;50.83;99533.98;1752127;80;21140;-79
2021/05/03 02:09:10;;;;;;;20.40;10.63;;;;;;;21.08;50.79;99540.51;1752454;80;21145;-78
2021/05/03 02:11:37;;;;;;;21.23;11.83;;;;;;;21.09;50.79;99536.70;1776547;80;21198;-76
2021/05/03 02:14:05;;;;;;;27.65;10.05;;;;;;;21.09;50.73;99531.80;1776062;80;21656;-77
2021/05/03 02:16:32;;;;;;;23.65;9.68;;;;;;;21.10;50.70;99532.90;1777644;80;21150;-79
2021/05/03 02:19:00;;;;;;;16.95;8.73;;;;;;;21.09;50.68;99536.70;1777118;80;21190;-77
2021/05/03 02:21:27;;;;;;;19.17;9.95;;;;;;;21.11;50.63;99540.53;1776339;80;21153;-78
2021/05/03 02:23:54;;;;;;;;;;;;;;;21.10;50.67;99535.63;1784862;80;21679;-78
2021/05/03 02:26:21;;;;;;;22.35;10.25;;;;;;;21.12;50.67;99542.17;1792947;78;20562;-79
2021/05/03 02:28:50;;;;;;;20.32;10.58;;;;;;;21.08;50.71;99540.51;1779114;79;21197;-78
2021/05/03 02:31:18;;;;;;;20.23;9.90;;;;;;;21.07;50.73;99552.45;1781481;79;21173;-80
2021/05/03 02:33:45;;;;;;;19.37;8.85;;;;;;;21.05;50.71;99543.72;1809118;79;21098;-79
2021/05/03 02:36:12;;;;;;;19.70;10.93;;;;;;;21.06;50.65;99553.53;1809871;79;21558;-79
2021/05/03 02:38:39;;;;;;;22.70;11.38;;;;;;;21.07;50.70;99544.28;1783146;79;21131;-79
2021/05/03 02:41:07;;;;;;;25.68;13.30;;;;;;;21.08;50.71;99541.87;1777749;80;21137;-79
2021/05/03 02:43:34;;;;;;;;;;;;;;;21.06;50.66;99541.28;1780302;80;21683;-79
2021/05/03 02:46:01;;;;;;;28.25;15.23;;;;;;;21.06;50.71;99542.63;1778113;80;20462;-79
2021/05/03 02:48:29;;;;;;;27.93;13.88;;;;;;;21.03;50.76;99545.88;1778055;80;21053;-78
2021/05/03 02:50:57;;;;;;;;;;;;;;;21.02;50.77;99558.64;1780794;80;21595;-79
2021/05/03 02:53:26;;;;;;;20.15;11.05;;;;;;;20.99;50.91;99556.98;1756161;79;20219;-79
2021/05/03 02:55:53;;;;;;;22.22;11.85;;;;;;;20.96;51.08;99565.63;1800555;78;21122;-77
2021/05/03 02:58:20;;;;;;;;;;;;;;;20.95;51.19;99577.59;1809863;79;21131;-79
2021/05/03 03:00:48;;;;;;;18.77;10.40;;;;;;;20.94;51.24;99583.58;1808198;79;20296;-76
2021/05/03 03:03:15;;;;;;;17.95;9.15;;;;;;;20.93;51.35;99579.19;1801746;79;21164;-80
2021/05/03 03:05:41;;;;;;;;;;;;;;;20.91;51.43;99592.23;1836800;78;21159;-77
2021/05/03 03:08:08;;;;;;;16.45;9.13;;;;;;;20.94;51.44;99590.92;1832417;78;20567;-76
2021/05/03 03:10:37;;;;;;;19.98;10.08;;;;;;;20.94;51.50;99596.37;1769595;81;21290;-78
2021/05/03 03:13:05;;;;;;;17.20;9.80;;;;;;;20.93;51.52;99598.23;1802308;79;21580;-79
2021/05/03 03:15:36;;;;;;;22.77;10.05;;;;;;;20.96;51.57;99607.83;1771359;81;21158;-79
2021/05/03 03:18:04;;;;;;;23.22;9.30;;;;;;;20.96;51.61;99601.02;1771170;81;21163;-79
2021/05/03 03:20:34;;;;;;;15.68;8.43;;;;;;;20.96;51.66;99605.92;1744814;81;21576;-79
2021/05/03 03:23:02;;;;;;;16.95;9.60;;;;;;;20.98;51.69;99609.75;1771097;80;21056;-81
2021/05/03 03:25:29;;;;;;;19.55;10.28;;;;;;;21.00;51.69;99599.45;1802355;79;21596;-79
2021/05/03 03:27:59;;;;;;;20.65;10.53;;;;;;;21.02;51.62;99595.94;1742122;81;21113;-80
2021/05/03 03:30:26;;;;;;;22.32;10.20;;;;;;;21.05;51.58;99602.80;1803161;79;21152;-79
2021/05/03 03:32:53;;;;;;;;;;;;;;;21.06;51.60;99594.91;1773660;81;21552;-77
2021/05/03 03:35:21;;;;;;;16.52;8.63;;;;;;;21.10;51.55;99601.52;1770663;81;20290;-78
2021/05/03 03:37:49;;;;;;;17.70;9.25;;;;;;;21.11;51.58;99608.06;1802213;79;21583;-78
2021/05/03 03:40:18;;;;;;;19.07;10.23;;;;;;;21.13;51.59;99614.10;1774929;79;21770;-80
2021/05/03 03:42:45;;;;;;;26.35;12.78;;;;;;;21.16;51.57;99613.59;1808930;78;21154;-77
2021/05/03 03:45:14;;;;;;;25.08;11.28;;;;;;;21.22;51.44;99616.70;1801292;79;21678;-76
2021/05/03 03:47:41;;;;;;;17.02;8.98;;;;;;;21.24;51.44;99624.61;1777008;79;21142;-77
2021/05/03 03:50:10;;;;;;;22.80;12.70;;;;;;;21.26;51.42;99632.84;1801340;79;21161;-77
2021/05/03 03:52:37;;;;;;;25.12;14.93;;;;;;;21.25;51.48;99637.97;1834367;78;21169;-77
2021/05/03 03:55:07;;;;;;;19.55;10.10;;;;;;;21.33;51.42;99638.67;1802117;79;21115;-79
2021/05/03 03:57:34;;;;;;;22.02;10.55;;;;;;;21.37;51.42;99634.38;1790571;80;21218;-78
2021/05/03 04:00:04;;;;;;;20.02;10.78;;;;;;;21.40;51.39;99640.70;1820671;78;21058;-77
2021/05/03 04:02:34;;;;;;;16.17;9.18;;;;;;;21.43;51.30;99647.00;1820380;78;21132;-77
2021/05/03 04:07:44;;;;;;;19.77;10.75;;;;;;;;;;1820766;78;21161;-77
2021/05/03 04:21:09;;;;;;;18.65;9.60;;;;;;;21.45;52.28;99676.20;1787379;80;21214;-78
2021/05/03 04:26:19;;;;;;;19.48;10.18;;;;;;;21.56;52.27;99686.16;1787999;80;21131;-77
2021/05/03 04:28:49;;;;;;;19.95;10.05;;;;;;;21.64;52.21;99688.48;1788406;80;21196;-76
2021/05/03 04:31:18;;;;;;;16.82;9.45;;;;;;;21.68;52.13;99695.08;1788207;80;21182;-78
2021/05/03 04:33:47;;;;;;;13.50;8.18;;;;;;;21.74;52.07;99698.16;1794295;78;21212;-78
2021/05/03 04:36:14;;;;;;;13.45;6.70;;;;;;;21.96;51.61;99702.84;1766871;80;21830;-77
2021/05/03 04:38:42;;;;;;;12.33;7.17;;;;;;;22.06;51.16;99698.88;1787934;79;21175;-78
2021/05/03 04:41:11;;;;;;;12.68;7.40;;;;;;;22.07;51.03;99705.98;1771388;80;21193;-77
2021/05/03 04:43:38;;;;;;;10.50;6.40;;;;;;;22.19;50.44;99698.55;1812558;77;21173;-78
2021/05/03 04:46:08;;;;;;;11.12;5.30;;;;;;;22.27;49.88;99700.84;1841971;77;21168;-79
2021/05/03 04:48:38;;;;;;;8.85;5.67;;;;;;;22.26;49.44;99700.56;1801671;79;21200;-79
2021/05/03 04:51:05;;;;;;;9.13;5.80;;;;;;;22.32;48.89;99690.53;1801777;79;21169;-77
2021/05/03 04:53:33;;;;;;;6.85;5.30;;;;;;;22.37;48.33;99691.13;1795118;78;21440;-77
2021/05/03 04:56:06;;;;;;;9.90;5.05;;;;;;;22.40;47.94;99694.73;1833810;78;21185;-78
2021/05/03 04:58:33;;;;;;;9.78;4.67;;;;;;;22.41;47.73;99695.00;1834240;78;21628;-79
2021/05/03 05:01:02;;;;;;;6.62;4.30;;;;;;;22.38;47.49;99693.59;1826710;77;21187;-81
2021/05/03 05:03:30;;;;;;;4.80;3.80;;;;;;;22.39;47.23;99696.63;1809811;77;21242;-77
2021/05/03 05:05:57;;;;;;;;;;;;;;;22.42;46.55;99704.83;1835941;77;21684;-77
2021/05/03 05:08:24;;;;;;;6.75;4.10;;;;;;;22.44;46.08;99704.06;1833637;77;20291;-79
2021/05/03 05:10:52;;;;;;;5.58;3.95;;;;;;;22.45;46.00;99699.70;1822511;77;21160;-80
2021/05/03 05:13:19;;;;;;;6.75;3.80;;;;;;;22.47;45.74;99694.80;1801268;79;21191;-81
2021/05/03 05:15:46;;;;;;;11.15;3.60;;;;;;;22.49;45.35;99695.92;1776592;79;21197;-79
2021/05/03 05:18:14;;;;;;;;;;;;;;;22.48;44.88;99699.71;1771522;79;21445;-79
2021/05/03 05:20:42;;;;;;;8.03;3.30;;;;;;;22.49;44.88;99694.56;1808183;78;20200;-78
2021/05/03 05:23:12;;;;;;;7.17;3.60;;;;;;;22.49;44.72;99702.20;1816430;79;21181;-80
2021/05/03 05:25:39;;;;;;;5.83;3.60;;;;;;;22.51;44.64;99706.03;1793951;79;21206;-80
2021/05/03 05:28:07;;;;;;;8.88;3.60;;;;;;;22.50;44.36;99714.77;1837438;78;21197;-78
2021/05/03 05:30:35;;;;;;;4.80;3.58;;;;;;;22.49;44.26;99713.13;1837314;78;21158;-81
2021/05/03 05:33:03;;;;;;;5.80;3.85;;;;;;;22.47;44.50;99709.81;1814888;78;21208;-78
2021/05/03 05:35:30;;;;;;;5.55;3.72;;;;;;;22.46;44.49;99708.70;1814640;78;21170;-80
2021/05/03 05:37:59;;;;;;;6.25;3.83;;;;;;;22.45;44.48;99709.80;1817216;79;21177;-80
2021/05/03 05:40:26;;;;;;;5.10;3.35;;;;;;;22.45;44.30;99711.16;1836854;78;21198;-78
2021/05/03 05:42:53;;;;;;;5.05;3.27;;;;;;;22.44;44.20;99710.87;1830307;78;21190;-77
2021/05/03 05:45:22;;;;;;;4.15;2.95;;;;;;;22.42;44.06;99709.75;1807993;78;21656;-78
2021/05/03 05:47:51;;;;;;;5.53;3.15;;;;;;;22.43;43.95;99705.11;1831989;78;21613;-78
2021/05/03 05:50:19;;;;;;;5.50;3.20;;;;;;;22.45;43.75;99722.07;1832234;78;21170;-78
2021/05/03 05:52:46;;;;;;;4.53;3.02;;;;;;;22.45;43.86;99720.70;1832771;78;21170;-79
2021/05/03 05:55:13;;;;;;;;;;;;;;;22.46;43.88;99732.72;1832360;78;21213;-77
2021/05/03 05:57:40;;;;;;;6.08;3.62;;;;;;;22.48;43.92;99747.47;1832647;78;20273;-79
2021/05/03 06:00:10;;;;;;;;;;;;;;;22.47;43.91;99748.02;1779407;79;22230;-79
2021/05/03 06:02:42;;;;;;;7.97;2.70;;;;;;;22.50;43.72;99753.52;1834456;78;20139;-82
2021/05/03 06:05:11;;;;;;;4.15;2.90;;;;;;;22.48;43.50;99751.05;1777414;79;21130;-82
2021/05/03 06:07:38;;;;;;;4.40;3.42;;;;;;;22.52;43.26;99756.80;1808931;78;21617;-78
2021/05/03 06:10:08;;;;;;;5.50;3.37;;;;;;;22.52;43.05;99756.80;1761686;78;21209;-78
2021/05/03 06:12:36;;;;;;;3.62;2.62;;;;;;;22.52;43.02;99756.26;1843322;77;21215;-78
2021/05/03 06:15:08;;;;;;;8.45;3.02;;;;;;;22.49;42.35;99758.70;1842334;77;21212;-79
2021/05/03 06:17:35;;;;;;;5.90;3.30;;;;;;;22.46;42.12;99761.92;1842959;77;21164;-79
2021/05/03 06:20:06;;;;;;;5.20;2.95;;;;;;;22.42;42.18;99771.15;1817611;77;21752;-78
2021/05/03 06:22:36;;;;;;;4.20;3.62;;;;;;;22.38;42.29;99776.82;1835572;78;21177;-79
2021/05/03 06:25:06;;;;;;;4.33;3.60;;;;;;;22.36;42.49;99764.52;1791405;80;21173;-77
2021/05/03 06:27:35;;;;;;;4.62;3.22;;;;;;;22.35;42.75;99761.52;1781277;80;21185;-82
2021/05/03 06:30:05;;;;;;;5.75;3.90;;;;;;;22.29;43.09;99765.52;1837929;77;21102;-78
2021/05/03 06:32:33;;;;;;;5.85;3.80;;;;;;;22.26;43.15;99770.13;1792596;80;21091;-76
2021/05/03 06:35:00;;;;;;;4.70;3.58;;;;;;;22.23;43.31;99778.81;1781265;80;21443;-79
2021/05/03 06:37:27;;;;;;;5.67;3.60;;;;;;;22.21;43.38;99779.61;1837136;78;21181;-79
2021/05/03 06:39:55;;;;;;;4.67;3.67;;;;;;;22.19;43.65;99788.56;1792440;80;21230;-80
2021/05/03 06:42:23;;;;;;;5.53;4.17;;;;;;;22.17;43.75;99786.64;1781016;80;21209;-80
2021/05/03 06:44:51;;;;;;;3.98;3.37;;;;;;;22.14;43.82;99784.41;1837480;78;21165;-79
2021/05/03 06:47:19;;;;;;;5.85;3.87;;;;;;;22.12;43.99;99781.63;1792417;78;21174;-83
2021/05/03 06:49:48;;;;;;;6.72;4.47;;;;;;;22.08;44.11;99782.66;1781625;80;21213;-78
2021/05/03 06:52:15;;;;;;;6.75;4.15;;;;;;;22.06;44.14;99784.79;1837774;78;21190;-79
2021/05/03 06:54:44;;;;;;;5.75;4.10;;;;;;;22.06;44.35;99797.06;1793535;80;21108;-80
2021/05/03 06:57:13;;;;;;;6.65;3.98;;;;;;;22.06;44.47;99799.80;1790062;79;21729;-82
2021/05/03 06:59:40;;;;;;;5.12;3.70;;;;;;;22.07;44.59;99804.16;1781182;80;21181;-79
2021/05/03 07:02:10;;;;;;;8.43;5.47;;;;;;;22.08;44.68;99807.20;1831969;78;21186;-80
2021/05/03 07:04:38;;;;;;;5.85;4.58;;;;;;;22.10;44.88;99809.67;1801574;77;21172;-80
2021/05/03 07:07:05;;;;;;;6.50;4.30;;;;;;;22.11;44.76;99810.77;1803003;79;21177;-81
2021/05/03 07:09:34;;;;;;;5.62;3.87;;;;;;;22.12;44.74;99815.72;1801310;79;21560;-78
2021/05/03 07:12:08;;;;;;;4.60;3.60;;;;;;;22.13;44.59;99811.40;1804936;79;21176;-78
2021/05/03 07:14:39;;;;;;;7.00;3.87;;;;;;;22.12;44.43;99813.84;1782327;80;21205;-78
2021/05/03 07:17:09;;;;;;;5.12;3.95;;;;;;;22.14;44.07;99821.23;1785975;78;21166;-79
2021/05/03 07:19:37;;;;;;;6.33;3.25;;;;;;;22.14;43.85;99814.95;1777812;80;21174;-79
2021/05/03 07:22:07;;;;;;;4.40;3.00;;;;;;;22.15;43.33;99818.78;1778000;80;21178;-82
2021/05/03 07:24:39;;;;;;;3.15;2.35;;;;;;;22.19;42.76;99821.84;1760032;80;21158;-79
2021/05/03 07:27:08;;;;;;;2.62;2.12;;;;;;;22.22;42.13;99818.63;1777351;79;21202;-79
2021/05/03 07:29:36;;;;;;;9.18;2.83;;;;;;;22.26;42.29;99824.69;1777043;80;21229;-78
2021/05/03 07:32:07;;;;;;;4.15;2.80;;;;;;;22.35;42.46;99825.09;1777022;78;21640;-78
2021/05/03 07:34:37;;;;;;;4.47;2.60;;;;;;;22.47;42.41;99822.23;1807166;79;21197;-79
2021/05/03 07:37:06;;;;;;;3.45;2.45;;;;;;;22.59;42.22;99828.97;1800617;79;21200;-79
2021/05/03 07:39:35;;;;;;;3.30;2.33;;;;;;;22.68;42.10;99817.34;1840948;76;21171;-77
2021/05/03 07:42:05;;;;;;;4.78;3.17;;;;;;;22.78;41.47;99816.11;1801168;79;21161;-80
2021/05/03 07:44:36;;;;;;;3.37;2.67;;;;;;;22.88;41.26;99815.94;1764752;79;21225;-77
2021/05/03 07:47:04;;;;;;;3.20;2.35;;;;;;;22.94;40.94;99816.34;1800935;79;21193;-80
2021/05/03 07:49:31;;;;;;;2.02;1.70;;;;;;;23.00;40.34;99812.58;1801978;77;22328;-78
2021/05/03 07:51:59;;;;;;;2.77;1.70;;;;;;;23.05;39.66;99816.73;1798939;78;21176;-77
2021/05/03 07:54:26;;;;;;;3.58;1.80;;;;;;;23.09;39.04;99816.51;1802168;79;21189;-78
2021/05/03 07:56:54;;;;;;;2.90;1.65;;;;;;;23.11;38.52;99810.23;1793998;79;21695;-79
2021/05/03 07:59:21;;;;;;;3.70;1.60;;;;;;;23.17;37.83;99815.23;1834761;78;21664;-82
2021/05/03 08:01:49;;;;;;;3.02;1.92;;;;;;;23.21;37.70;99809.52;1835837;77;21087;-79
2021/05/03 08:04:17;;;;;;;3.98;1.87;;;;;;;23.29;37.59;99810.42;1835987;78;21158;-81
2021/05/03 08:06:47;;;;;;;2.72;1.67;;;;;;;23.39;37.53;99808.33;1835327;78;21193;-78
2021/05/03 08:09:14;;;;;;;4.45;2.05;;;;;;;23.57;37.51;99799.75;1835108;78;21099;-80
2021/05/03 08:11:45;;;;;;;3.52;2.20;;;;;;;23.81;37.41;99799.47;1809213;78;21138;-79
2021/05/03 08:14:15;;;;;;;6.15;2.35;;;;;;;24.08;37.17;99804.32;1809853;78;21197;-80
2021/05/03 08:16:42;;;;;;;2.12;1.55;;;;;;;24.36;36.68;99810.52;1809906;78;21181;-80
2021/05/03 08:19:09;;;;;;;3.08;1.52;;;;;;;24.60;35.78;99826.82;1834450;78;21659;-81
2021/05/03 08:21:40;;;;;;;1.70;1.60;;;;;;;24.78;34.90;99828.28;1830253;78;21613;-78
2021/05/03 08:24:07;;;;;;;3.65;1.62;;;;;;;24.91;34.87;99831.08;1811795;78;21251;-79
2021/05/03 08:26:36;;;;;;;2.92;1.60;;;;;;;25.00;34.39;99830.28;1833454;78;21211;-81
2021/05/03 08:29:04;;;;;;;3.02;1.70;;;;;;;25.11;34.24;99825.69;1801448;79;21201;-79
2021/05/03 08:31:32;;;;;;;2.05;1.50;;;;;;;25.20;34.30;99813.10;1833532;78;21158;-79
2021/05/03 08:33:59;;;;;;;5.45;1.65;;;;;;;25.30;34.07;99819.18;1833443;78;21167;-80
2021/05/03 08:36:27;;;;;;;2.27;1.57;;;;;;;25.38;33.64;99819.17;1808577;78;21644;-80
2021/05/03 08:38:57;;;;;;;3.80;1.30;;;;;;;25.44;33.69;99816.73;1833688;78;21263;-79
2021/05/03 08:41:27;;;;;;;1.70;1.57;;;;;;;25.50;33.31;99824.69;1807232;78;21194;-77
2021/05/03 08:43:54;;;;;;;6.17;1.62;;;;;;;25.56;33.20;99820.02;1832645;78;21178;-81
2021/05/03 08:46:29;;;;;;;5.17;1.75;;;;;;;25.61;33.17;99815.09;1833287;78;21186;-77
2021/05/03 08:49:05;;;;;;;1.67;1.45;;;;;;;25.62;33.17;99816.20;1834507;78;21443;-78
2021/05/03 08:52:03;;;;;;;4.40;1.40;;;;;;;25.63;33.14;99815.66;1833365;78;21101;-78
2021/05/03 08:54:13;;;;;;;1.67;1.47;;;;;;;25.62;33.20;99813.98;1818941;77;21174;-79
2021/05/03 08:56:34;;;;;;;2.33;1.30;;;;;;;25.65;32.82;99814.82;1820175;78;21182;-76
2021/05/03 08:59:05;;;;;;;4.15;1.77;;;;;;;25.64;32.98;99824.97;1833510;77;21347;-78
2021/05/03 09:01:31;;;;;;;;;;;;;;;25.69;32.83;99829.09;1836473;77;21165;-80
2021/05/03 09:03:59;;;;;;;2.62;1.65;;;;;;;25.71;33.04;99829.66;1834002;77;20366;-82
2021/05/03 09:06:26;;;;;;;4.22;1.55;;;;;;;25.71;32.68;99839.81;1833651;78;21644;-78
2021/05/03 09:09:04;;;;;;;;;;;;;;;25.67;32.33;99851.87;1836634;78;21767;-78
2021/05/03 09:11:31;;;;;;;2.55;1.30;;;;;;;25.61;32.15;99854.31;1813604;78;20308;-78
2021/05/03 09:14:09;;;;;;;1.80;1.17;;;;;;;25.51;32.42;99857.04;1743032;81;21237;-80
2021/05/03 09:16:44;;;;;;;4.85;1.40;;;;;;;25.46;32.53;99851.00;1776339;79;40427;-80
2021/05/03 09:19:14;;;;;;;2.65;1.20;;;;;;;25.48;32.79;99841.13;1802498;78;21519;-78
2021/05/03 09:21:41;;;;;;;1.77;1.50;;;;;;;25.48;32.98;99846.61;1803261;78;21190;-78
2021/05/03 09:24:20;;;;;;;1.70;1.42;;;;;;;25.47;33.32;99849.08;1782439;79;21163;-79
2021/05/03 09:26:55;;;;;;;2.67;1.30;;;;;;;25.46;33.20;99845.52;1767410;79;21206;-77
2021/05/03 09:29:36;;;;;;;1.52;1.42;;;;;;;25.46;33.25;99849.63;1785001;79;21055;-78
2021/05/03 09:32:21;;;;;;;4.15;1.40;;;;;;;25.45;33.22;99833.46;1833625;78;21692;-81
2021/05/03 09:34:53;;;;;;;4.05;1.47;;;;;;;25.45;33.20;99837.57;1833771;78;21190;-82
2021/05/03 09:37:34;;;;;;;1.75;1.15;;;;;;;25.43;33.12;99839.19;1809427;78;21182;-80
2021/05/03 09:40:11;;;;;;;1.40;1.30;;;;;;;25.42;33.30;99842.22;1833748;77;21169;-79
2021/05/03 09:42:50;;;;;;;4.28;1.30;;;;;;;25.36;32.94;99838.65;1836057;78;21174;-78
2021/05/03 09:45:25;;;;;;;2.08;1.07;;;;;;;25.29;33.45;99838.89;1834689;78;21210;-78
2021/05/03 09:47:57;;;;;;;1.47;1.25;;;;;;;25.24;33.25;99855.33;1832456;78;21185;-80
2021/05/03 09:50:29;;;;;;;3.77;1.32;;;;;;;25.19;33.46;99873.68;1833558;78;21169;-76
2021/05/03 09:53:16;;;;;;;5.55;1.47;;;;;;;25.14;33.08;99863.52;1805682;78;21117;-79
2021/05/03 09:55:47;;;;;;;3.45;1.40;;;;;;;25.10;33.25;99876.11;1776940;79;21221;-78
2021/05/03 09:58:23;;;;;;;2.12;1.40;;;;;;;25.08;33.48;99889.27;1800808;79;21207;-79
2021/05/03 10:00:54;;;;;;;2.58;1.45;;;;;;;25.04;33.53;99891.69;1761173;81;21250;-79
2021/05/03 10:03:42;;;;;;;5.92;1.87;;;;;;;25.08;33.55;99889.82;1781418;80;21501;-77
2021/05/03 10:06:11;;;;;;;5.33;1.47;;;;;;;25.01;33.24;99885.36;1781997;80;21669;-79
2021/05/03 10:08:43;;;;;;;4.45;1.60;;;;;;;24.95;33.67;99886.98;1781603;80;21188;-78
2021/05/03 10:11:10;;;;;;;3.35;1.45;;;;;;;24.94;33.70;99888.09;1782067;79;21197;-82
2021/05/03 10:13:41;;;;;;;1.75;1.30;;;;;;;24.93;33.75;99901.48;1787229;78;21266;-79
2021/05/03 10:16:08;;;;;;;5.95;1.85;;;;;;;24.92;33.68;99897.09;1812832;79;21755;-77
2021/05/03 10:18:41;;;;;;;3.85;1.60;;;;;;;24.90;33.84;99899.30;1812081;79;21213;-80
2021/05/03 10:21:10;;;;;;;5.78;1.70;;;;;;;24.87;33.85;99916.25;1812247;79;21217;-79
2021/05/03 10:23:44;;;;;;;2.58;1.80;;;;;;;24.87;34.01;99916.25;1788645;79;21208;-81
2021/05/03 10:26:11;;;;;;;3.62;1.62;;;;;;;24.82;34.03;99932.66;1783672;79;21709;-79
2021/05/03 10:28:55;;;;;;;4.15;1.32;;;;;;;24.78;34.09;99948.25;1781819;80;21447;-79
2021/05/03 10:31:24;;;;;;;1.50;1.40;;;;;;;24.73;33.83;99950.96;1781748;80;21213;-78
2021/05/03 10:33:52;;;;;;;7.53;2.17;;;;;;;24.68;33.91;99944.62;1781473;80;21189;-82
2021/05/03 10:36:37;;;;;;;5.87;2.10;;;;;;;24.59;33.99;99949.77;1781920;80;21700;-79
2021/05/03 10:39:32;;;;;;;6.22;2.20;;;;;;;24.50;34.17;99951.34;1790827;79;21620;-79
2021/05/03 10:42:07;;;;;;;3.72;3.42;;;;;;;24.41;34.15;99971.53;1807525;79;21485;-78
2021/05/03 10:44:37;;;;;;;2.08;1.65;;;;;;;24.33;34.42;99978.00;1813625;79;21177;-81
2021/05/03 10:47:36;;;;;;;3.27;1.57;;;;;;;24.26;34.71;99972.75;1813973;79;21712;-81
2021/05/03 10:50:05;;;;;;;5.78;1.80;;;;;;;24.18;34.93;99970.48;1789032;79;21213;-78
2021/05/03 10:52:35;;;;;;;5.78;1.67;;;;;;;24.03;34.94;99969.26;1813841;79;21193;-79
2021/05/03 10:55:03;;;;;;;2.22;1.15;;;;;;;23.97;34.83;99981.77;1814741;79;21120;-78
2021/05/03 10:57:34;;;;;;;3.55;1.62;;;;;;;23.81;34.81;99964.38;1813852;79;21620;-79
2021/05/03 11:00:06;;;;;;;3.40;1.62;;;;;;;23.71;34.91;99973.81;1813961;79;21426;-78
2021/05/03 11:02:44;;;;;;;3.83;1.50;;;;;;;23.61;35.54;99971.77;1789889;79;21198;-78
2021/05/03 11:05:28;;;;;;;3.98;2.00;;;;;;;23.51;35.94;99970.28;1814023;79;21054;-78
2021/05/03 11:08:10;;;;;;;2.80;1.87;;;;;;;23.37;36.56;99974.49;1813932;79;21170;-79
2021/05/03 11:11:08;;;;;;;6.05;1.70;;;;;;;23.25;36.31;99983.62;1813713;79;21530;-79
2021/05/03 11:13:55;;;;;;;1.30;1.20;;;;;;;23.11;36.08;99998.73;1813739;79;21205;-78
2021/05/03 11:16:45;;;;;;;1.95;1.57;;;;;;;22.96;36.22;100029.39;1801142;78;21182;-76
2021/05/03 11:22:07;;;;;;;3.08;1.80;;;;;;;22.74;36.25;100018.91;1784148;78;21202;-78
2021/05/03 11:24:55;;;;;;;5.70;1.52;;;;;;;22.61;36.60;100029.61;1777214;79;21611;-79
2021/05/03 11:27:28;;;;;;;1.72;1.60;;;;;;;22.54;37.18;100022.14;1801321;78;21177;-79
2021/05/03 11:30:19;;;;;;;5.58;1.80;;;;;;;22.44;37.34;100016.52;1767628;79;21234;-78
2021/05/03 11:32:34;;;;;;;2.20;1.50;;;;;;;22.37;38.19;100009.02;1766409;80;21454;-78
2021/05/03 11:35:14;;;;;;;3.45;1.70;;;;;;;22.31;38.21;100005.38;1801023;79;21153;-77
2021/05/03 11:37:49;;;;;;;4.17;1.80;;;;;;;22.23;38.22;99990.77;1766574;81;21185;-77
2021/05/03 11:45:29;;;;;;;1.75;1.40;;;;;;;21.98;38.70;99997.91;1809326;78;21194;-79
2021/05/03 11:47:59;;;;;;;1.67;1.50;;;;;;;21.92;39.47;99993.45;1801440;79;21173;-79
2021/05/03 11:50:29;;;;;;;4.45;1.82;;;;;;;21.87;39.50;99973.73;1791651;79;21189;-77
2021/05/03 11:53:00;;;;;;;1.92;1.30;;;;;;;21.83;40.05;99958.92;1791389;79;21189;-80
2021/05/03 11:55:28;;;;;;;2.27;1.50;;;;;;;21.79;40.32;99930.50;1791972;80;21182;-82
2021/05/03 11:57:55;;;;;;;2.15;1.80;;;;;;;21.78;39.73;99927.48;1808004;78;21035;-79
2021/05/03 12:00:25;;;;;;;1.98;1.60;;;;;;;21.77;39.39;99932.11;1801271;78;21175;-79
2021/05/03 12:03:07;;;;;;;2.10;1.90;;;;;;;21.76;39.40;99942.73;1792570;80;21198;-79
2021/05/03 12:05:35;;;;;;;1.90;1.70;;;;;;;21.76;39.44;99925.02;1777228;79;21266;-79
2021/05/03 12:08:14;;;;;;;2.92;2.00;;;;;;;21.75;39.87;99952.50;1834823;78;21205;-77
2021/05/03 12:10:42;;;;;;;6.30;3.70;;;;;;;21.78;40.44;99966.47;1799210;79;21676;-80